Wentworth, New Hampshire
Current Conditions -  °F | °C
As of 5:35 AM on Monday 20 Oct 2014 (Local Time) from K1P1 Reporting Station
Clear Clear  
Wind Chill: 30°   Ceiling: Unl
Heat Index: 37°   Visibility: 10mi
Dew Point: 29°   Wind: 9mph
Humidity: 74%   Direction: 280°W
Pressure: 29.97"   Gusts: NA
Location:  43.87°N, 71.91°W
Report Text: K1P1 200935Z AUTO 28008KT 10SM CLR 03/M01 A2997 RMK AO2 T00281014
Loading
Personal Weather Stations






























Interactive Weather Map
Tropical Storm Tracking
New forecast layout! Learn more

10-Day Weather Forecast

Advertisements
Track Severe Weather on mobile